Private Wetterstation Sandau
Wetterdaten: Sonntag, 19.02.2012
Datum Zeit Temp. A. Feuchte A. Luftdruck Regen Wind Richtung Richtung Taupunkt Windchill
19.02.2012 00:02 5,6 C 89 % 1006,5 hPa 0,0 l/m 5,8 km/h (2 Bft) SW 225 3,9 C 4,5 C
19.02.2012 00:07 5,8 C 89 % 1006,3 hPa 0,0 l/m 10,1 km/h (2 Bft) S-SW 202 4,1 C 3,6 C
19.02.2012 00:12 5,8 C 88 % 1006,1 hPa 0,0 l/m 11,2 km/h (2 Bft) S 180 4,0 C 3,4 C
19.02.2012 00:17 5,8 C 88 % 1006,3 hPa 0,0 l/m 13,0 km/h (3 Bft) SW 225 4,0 C 3,1 C
19.02.2012 00:22 5,8 C 88 % 1006,0 hPa 0,0 l/m 16,9 km/h (3 Bft) S-SW 202 4,0 C 2,5 C
19.02.2012 00:27 5,9 C 88 % 1006,2 hPa 0,0 l/m 14,4 km/h (3 Bft) S 180 4,1 C 2,9 C
19.02.2012 00:32 5,9 C 88 % 1005,9 hPa 0,0 l/m 20,9 km/h (4 Bft) W-SW 247 4,1 C 2,1 C
19.02.2012 00:37 5,9 C 88 % 1006,0 hPa 0,0 l/m 22,0 km/h (4 Bft) SW 225 4,1 C 2,0 C
19.02.2012 00:42 5,9 C 87 % 1005,9 hPa 0,0 l/m 16,2 km/h (3 Bft) SO 135 3,9 C 2,7 C
19.02.2012 00:47 5,9 C 87 % 1006,0 hPa 0,0 l/m 11,9 km/h (2 Bft) W 270 3,9 C 3,4 C
19.02.2012 00:52 5,9 C 87 % 1005,8 hPa 0,0 l/m 13,0 km/h (3 Bft) W-SW 247 3,9 C 3,2 C
19.02.2012 00:57 5,9 C 87 % 1005,7 hPa 0,0 l/m 16,2 km/h (3 Bft) S-SW 202 3,9 C 2,7 C
19.02.2012 01:02 5,9 C 87 % 1005,8 hPa 0,0 l/m 20,2 km/h (4 Bft) S-SW 202 3,9 C 2,2 C
19.02.2012 01:07 5,9 C 87 % 1005,6 hPa 0,0 l/m 18,4 km/h (3 Bft) S 180 3,9 C 2,4 C
19.02.2012 01:12 5,9 C 87 % 1005,7 hPa 0,0 l/m 15,1 km/h (3 Bft) S-SW 202 3,9 C 2,8 C
19.02.2012 01:17 5,9 C 87 % 1005,8 hPa 0,0 l/m 21,6 km/h (4 Bft) S-SW 202 3,9 C 2,0 C
19.02.2012 01:22 5,9 C 87 % 1005,4 hPa 0,0 l/m 13,3 km/h (3 Bft) W-SW 247 3,9 C 3,1 C
19.02.2012 01:27 5,9 C 87 % 1005,5 hPa 0,0 l/m 11,9 km/h (2 Bft) S-SW 202 3,9 C 3,4 C
19.02.2012 01:32 5,9 C 87 % 1005,3 hPa 0,0 l/m 13,0 km/h (3 Bft) S-SW 202 3,9 C 3,2 C
19.02.2012 01:37 5,9 C 87 % 1005,3 hPa 0,0 l/m 19,1 km/h (3 Bft) S-SO 157 3,9 C 2,3 C
19.02.2012 01:42 5,9 C 87 % 1005,2 hPa 0,0 l/m 9,0 km/h (2 Bft) S 180 3,9 C 4,0 C
19.02.2012 01:47 5,9 C 87 % 1005,2 hPa 0,0 l/m 10,1 km/h (2 Bft) SW 225 3,9 C 3,7 C
19.02.2012 01:52 5,9 C 87 % 1005,1 hPa 0,0 l/m 9,4 km/h (2 Bft) S 180 3,9 C 3,9 C
19.02.2012 01:57 5,9 C 87 % 1005,2 hPa 0,0 l/m 15,8 km/h (3 Bft) S-SW 202 3,9 C 2,7 C
19.02.2012 02:02 5,9 C 87 % 1005,2 hPa 0,0 l/m 14,0 km/h (3 Bft) SW 225 3,9 C 3,0 C
19.02.2012 02:07 5,9 C 87 % 1005,0 hPa 0,0 l/m 12,2 km/h (2 Bft) W-SW 247 3,9 C 3,3 C
19.02.2012 02:12 5,9 C 87 % 1005,1 hPa 0,0 l/m 22,7 km/h (4 Bft) SW 225 3,9 C 1,9 C
19.02.2012 02:17 5,9 C 87 % 1005,0 hPa 0,0 l/m 14,8 km/h (3 Bft) S-SO 157 3,9 C 2,9 C
19.02.2012 02:22 5,9 C 87 % 1004,8 hPa 0,0 l/m 9,4 km/h (2 Bft) S 180 3,9 C 3,9 C
19.02.2012 02:27 5,9 C 87 % 1004,7 hPa 0,0 l/m 13,3 km/h (3 Bft) SW 225 3,9 C 3,1 C
19.02.2012 02:32 5,9 C 87 % 1004,6 hPa 0,0 l/m 20,5 km/h (4 Bft) SW 225 3,9 C 2,1 C
19.02.2012 02:37 5,9 C 86 % 1004,7 hPa 0,0 l/m 14,8 km/h (3 Bft) S 180 3,7 C 2,9 C
19.02.2012 02:42 5,9 C 86 % 1004,6 hPa 0,0 l/m 18,7 km/h (3 Bft) S-SW 202 3,7 C 2,4 C
19.02.2012 02:47 5,9 C 86 % 1004,5 hPa 0,0 l/m 24,5 km/h (4 Bft) SW 225 3,7 C 1,7 C
19.02.2012 02:52 5,9 C 86 % 1004,5 hPa 0,0 l/m 15,1 km/h (3 Bft) S 180 3,7 C 2,8 C
19.02.2012 02:57 5,9 C 86 % 1004,4 hPa 0,0 l/m 11,9 km/h (2 Bft) S-SW 202 3,7 C 3,4 C
19.02.2012 03:02 6,1 C 86 % 1004,4 hPa 0,0 l/m 20,5 km/h (4 Bft) S-SW 202 3,9 C 2,4 C
19.02.2012 03:07 6,1 C 86 % 1004,2 hPa 0,0 l/m 15,1 km/h (3 Bft) S-SW 202 3,9 C 3,1 C
19.02.2012 03:12 6,1 C 85 % 1004,2 hPa 0,0 l/m 11,9 km/h (2 Bft) SW 225 3,8 C 3,6 C
19.02.2012 03:17 6,1 C 85 % 1004,2 hPa 0,0 l/m 13,0 km/h (3 Bft) S-SW 202 3,8 C 3,4 C
19.02.2012 03:22 6,1 C 85 % 1004,3 hPa 0,0 l/m 12,2 km/h (2 Bft) S-SO 157 3,8 C 3,6 C
19.02.2012 03:27 6,1 C 85 % 1004,2 hPa 0,0 l/m 9,0 km/h (2 Bft) S-SO 157 3,8 C 4,2 C
19.02.2012 03:32 6,1 C 86 % 1004,1 hPa 0,0 l/m 19,1 km/h (3 Bft) SW 225 3,9 C 2,6 C
19.02.2012 03:37 6,1 C 86 % 1004,2 hPa 0,0 l/m 15,5 km/h (3 Bft) S 180 3,9 C 3,0 C
19.02.2012 03:42 6,1 C 85 % 1004,2 hPa 0,0 l/m 14,4 km/h (3 Bft) W-SW 247 3,8 C 3,2 C
19.02.2012 03:47 6,1 C 86 % 1004,2 hPa 0,5 l/m 15,5 km/h (3 Bft) SW 225 3,9 C 3,0 C
19.02.2012 03:52 6,1 C 86 % 1004,0 hPa 0,0 l/m 16,9 km/h (3 Bft) S 180 3,9 C 2,8 C
19.02.2012 03:57 6,1 C 86 % 1004,1 hPa 0,0 l/m 20,5 km/h (4 Bft) O-SO 112 3,9 C 2,4 C
19.02.2012 04:02 6,1 C 86 % 1004,1 hPa 0,0 l/m 10,1 km/h (2 Bft) SW 225 3,9 C 4,0 C
19.02.2012 04:07 5,9 C 87 % 1004,1 hPa 0,0 l/m 13,3 km/h (3 Bft) W 270 3,9 C 3,1 C
19.02.2012 04:12 5,9 C 87 % 1004,3 hPa 0,0 l/m 5,8 km/h (2 Bft) W-SW 247 3,9 C 4,8 C
19.02.2012 04:17 5,9 C 87 % 1004,4 hPa 0,0 l/m 12,2 km/h (2 Bft) W-SW 247 3,9 C 3,3 C
19.02.2012 04:22 5,8 C 87 % 1004,5 hPa 0,0 l/m 15,1 km/h (3 Bft) W 270 3,8 C 2,7 C
19.02.2012 04:27 5,6 C 85 % 1005,1 hPa 0,0 l/m 9,7 km/h (2 Bft) N-NO 22 3,3 C 3,4 C
19.02.2012 04:32 4,8 C 84 % 1005,1 hPa 0,5 l/m 8,3 km/h (2 Bft) N 360 2,3 C 2,8 C
19.02.2012 04:37 4,1 C 84 % 1005,3 hPa 0,0 l/m 17,6 km/h (3 Bft) W-NW 292 1,6 C 0,2 C
19.02.2012 04:42 3,6 C 85 % 1005,4 hPa 0,0 l/m 5,8 km/h (2 Bft) N-NO 22 1,3 C 2,2 C
19.02.2012 04:47 3,5 C 86 % 1005,4 hPa 0,0 l/m 4,0 km/h (1 Bft) NW 315 1,4 C 3,5 C
19.02.2012 04:52 3,4 C 87 % 1005,6 hPa 0,0 l/m 9,7 km/h (2 Bft) N-NW 337 1,4 C 0,8 C
19.02.2012 04:57 3,3 C 87 % 1005,6 hPa 0,5 l/m 1,8 km/h (1 Bft) NW 315 1,3 C 3,3 C
19.02.2012 05:02 3,3 C 87 % 1005,6 hPa 0,0 l/m 4,3 km/h (1 Bft) NW 315 1,3 C 3,3 C
19.02.2012 05:07 3,3 C 87 % 1005,5 hPa 0,0 l/m 6,5 km/h (2 Bft) W-NW 292 1,3 C 1,6 C
19.02.2012 05:12 3,2 C 87 % 1005,5 hPa 0,0 l/m 2,5 km/h (1 Bft) W-NW 292 1,2 C 3,2 C
19.02.2012 05:17 3,2 C 88 % 1005,5 hPa 0,0 l/m 5,0 km/h (1 Bft) W-NW 292 1,4 C 2,0 C
19.02.2012 05:22 3,2 C 88 % 1005,7 hPa 0,0 l/m 3,2 km/h (1 Bft) W-NW 292 1,4 C 3,2 C
19.02.2012 05:27 3,2 C 88 % 1005,8 hPa 0,0 l/m 6,5 km/h (2 Bft) W-NW 292 1,4 C 1,5 C
19.02.2012 05:32 3,3 C 88 % 1006,0 hPa 0,0 l/m 7,9 km/h (2 Bft) W 270 1,5 C 1,2 C
19.02.2012 05:37 3,3 C 88 % 1006,2 hPa 0,0 l/m 7,6 km/h (2 Bft) W 270 1,5 C 1,3 C
19.02.2012 05:42 3,3 C 88 % 1006,2 hPa 0,0 l/m 5,0 km/h (1 Bft) W-SW 247 1,5 C 2,2 C
19.02.2012 05:47 3,3 C 88 % 1006,3 hPa 0,0 l/m 9,4 km/h (2 Bft) W-NW 292 1,5 C 0,8 C
19.02.2012 05:52 3,3 C 88 % 1006,2 hPa 0,0 l/m 5,4 km/h (1 Bft) W 270 1,5 C 2,0 C
19.02.2012 05:57 3,3 C 88 % 1006,2 hPa 0,0 l/m 12,2 km/h (2 Bft) W 270 1,5 C 0,2 C
19.02.2012 06:02 3,3 C 88 % 1006,5 hPa 0,0 l/m 6,5 km/h (2 Bft) W-NW 292 1,5 C 1,6 C
19.02.2012 06:07 3,2 C 88 % 1006,5 hPa 0,0 l/m 9,0 km/h (2 Bft) W-NW 292 1,4 C 0,8 C
19.02.2012 06:12 3,1 C 88 % 1006,5 hPa 0,0 l/m 3,6 km/h (1 Bft) W 270 1,3 C 3,1 C
19.02.2012 06:17 3,1 C 88 % 1006,4 hPa 0,0 l/m 10,1 km/h (2 Bft) W-NW 292 1,3 C 0,4 C
19.02.2012 06:22 3,1 C 88 % 1006,5 hPa 0,0 l/m 5,0 km/h (1 Bft) W-SW 247 1,3 C 1,9 C
19.02.2012 06:27 3,1 C 88 % 1006,5 hPa 0,0 l/m 3,2 km/h (1 Bft) W 270 1,3 C 3,1 C
19.02.2012 06:32 3,0 C 89 % 1006,6 hPa 0,0 l/m 7,6 km/h (2 Bft) SW 225 1,4 C 0,9 C
19.02.2012 06:37 3,0 C 89 % 1006,5 hPa 0,0 l/m 5,4 km/h (1 Bft) W-SW 247 1,4 C 1,7 C
19.02.2012 06:42 2,9 C 88 % 1006,6 hPa 0,0 l/m 8,3 km/h (2 Bft) W-SW 247 1,1 C 0,6 C
19.02.2012 06:47 2,9 C 88 % 1006,9 hPa 0,0 l/m 13,3 km/h (3 Bft) W-SW 247 1,1 C -0,5 C
19.02.2012 06:52 2,9 C 88 % 1006,9 hPa 0,0 l/m 17,3 km/h (3 Bft) W-SW 247 1,1 C -1,2 C
19.02.2012 06:57 2,9 C 88 % 1006,8 hPa 0,0 l/m 11,2 km/h (2 Bft) W-SW 247 1,1 C -0,1 C
19.02.2012 07:02 2,8 C 89 % 1007,0 hPa 0,0 l/m 23,0 km/h (4 Bft) W-SW 247 1,2 C -2,1 C
19.02.2012 07:07 2,8 C 89 % 1007,4 hPa 0,0 l/m 15,5 km/h (3 Bft) W-SW 247 1,2 C -1,0 C
19.02.2012 07:12 2,8 C 89 % 1007,3 hPa 0,0 l/m 9,4 km/h (2 Bft) W 270 1,2 C 0,2 C
19.02.2012 07:17 2,8 C 89 % 1007,3 hPa 0,0 l/m 24,1 km/h (4 Bft) W-SW 247 1,2 C -2,2 C
19.02.2012 07:22 2,8 C 89 % 1007,5 hPa 0,0 l/m 11,9 km/h (2 Bft) W 270 1,2 C -0,4 C
19.02.2012 07:27 2,8 C 89 % 1007,5 hPa 0,0 l/m 14,0 km/h (3 Bft) W-SW 247 1,2 C -0,8 C
19.02.2012 07:32 2,8 C 89 % 1007,5 hPa 0,0 l/m 16,9 km/h (3 Bft) W-SW 247 1,2 C -1,3 C
19.02.2012 07:37 2,8 C 88 % 1007,4 hPa 0,0 l/m 25,6 km/h (4 Bft) W-SW 247 1,0 C -2,4 C
19.02.2012 07:42 2,8 C 88 % 1007,6 hPa 0,0 l/m 7,9 km/h (2 Bft) NW 315 1,0 C 0,6 C
19.02.2012 07:47 2,8 C 88 % 1007,7 hPa 0,0 l/m 10,1 km/h (2 Bft) W 270 1,0 C 0,0 C
19.02.2012 07:52 2,8 C 88 % 1007,7 hPa 0,0 l/m 5,0 km/h (1 Bft) W 270 1,0 C 1,6 C
19.02.2012 07:57 2,8 C 88 % 1007,9 hPa 0,0 l/m 9,0 km/h (2 Bft) W 270 1,0 C 0,3 C
19.02.2012 08:02 2,8 C 88 % 1007,8 hPa 0,0 l/m 18,4 km/h (3 Bft) W 270 1,0 C -1,5 C
19.02.2012 08:07 2,8 C 87 % 1008,0 hPa 0,0 l/m 11,9 km/h (2 Bft) W-SW 247 0,9 C -0,4 C
19.02.2012 08:12 2,8 C 87 % 1007,9 hPa 0,0 l/m 9,7 km/h (2 Bft) W 270 0,9 C 0,1 C
19.02.2012 08:17 2,8 C 87 % 1007,8 hPa 0,0 l/m 16,9 km/h (3 Bft) W-NW 292 0,9 C -1,3 C
19.02.2012 08:22 2,8 C 87 % 1008,0 hPa 0,0 l/m 13,3 km/h (3 Bft) W 270 0,9 C -0,7 C
19.02.2012 08:27 2,9 C 87 % 1008,1 hPa 0,0 l/m 9,0 km/h (2 Bft) SW 225 1,0 C 0,4 C
19.02.2012 08:32 2,9 C 86 % 1008,2 hPa 0,0 l/m 18,0 km/h (3 Bft) W-NW 292 0,8 C -1,3 C
19.02.2012 08:37 2,9 C 86 % 1008,3 hPa 0,0 l/m 17,6 km/h (3 Bft) W-SW 247 0,8 C -1,2 C
19.02.2012 08:42 2,9 C 87 % 1008,3 hPa 0,0 l/m 23,4 km/h (4 Bft) W-SW 247 1,0 C -2,0 C
19.02.2012 08:47 2,9 C 87 % 1008,4 hPa 0,0 l/m 11,2 km/h (2 Bft) W 270 1,0 C -0,1 C
19.02.2012 08:52 2,9 C 86 % 1008,4 hPa 0,0 l/m 14,4 km/h (3 Bft) W-SW 247 0,8 C -0,7 C
19.02.2012 08:57 2,9 C 86 % 1008,4 hPa 0,0 l/m 19,1 km/h (3 Bft) SW 225 0,8 C -1,5 C
19.02.2012 09:02 3,0 C 86 % 1008,7 hPa 0,0 l/m 22,3 km/h (4 Bft) W-SW 247 0,9 C -1,7 C
19.02.2012 09:07 3,0 C 86 % 1008,7 hPa 0,0 l/m 13,7 km/h (3 Bft) W-SW 247 0,9 C -0,5 C
19.02.2012 09:12 3,1 C 86 % 1008,9 hPa 0,0 l/m 22,0 km/h (4 Bft) W 270 1,0 C -1,6 C
19.02.2012 09:17 3,1 C 86 % 1008,8 hPa 0,0 l/m 13,0 km/h (3 Bft) SW 225 1,0 C -0,2 C
19.02.2012 09:22 3,2 C 86 % 1008,9 hPa 0,0 l/m 5,4 km/h (1 Bft) SW 225 1,1 C 1,9 C
19.02.2012 09:27 3,2 C 86 % 1009,1 hPa 0,0 l/m 11,2 km/h (2 Bft) W-SW 247 1,1 C 0,2 C
19.02.2012 09:32 3,3 C 86 % 1009,1 hPa 0,0 l/m 9,4 km/h (2 Bft) W-SW 247 1,2 C 0,8 C
19.02.2012 09:37 3,3 C 86 % 1009,0 hPa 0,0 l/m 19,4 km/h (3 Bft) W 270 1,2 C -1,0 C
19.02.2012 09:42 3,4 C 85 % 1009,1 hPa 0,0 l/m 13,3 km/h (3 Bft) W 270 1,1 C 0,1 C
19.02.2012 09:47 3,5 C 85 % 1009,2 hPa 0,0 l/m 19,1 km/h (3 Bft) W 270 1,2 C -0,7 C
19.02.2012 09:52 3,6 C 85 % 1009,3 hPa 0,0 l/m 22,7 km/h (4 Bft) S-SW 202 1,3 C -1,0 C
19.02.2012 09:57 3,7 C 85 % 1009,4 hPa 0,0 l/m 21,6 km/h (4 Bft) W 270 1,4 C -0,8 C
19.02.2012 10:02 3,8 C 85 % 1009,3 hPa 0,0 l/m 11,5 km/h (2 Bft) W-SW 247 1,5 C 0,9 C
19.02.2012 10:07 3,8 C 84 % 1009,4 hPa 0,0 l/m 21,2 km/h (4 Bft) W-SW 247 1,4 C -0,6 C
19.02.2012 10:12 3,8 C 84 % 1009,5 hPa 0,0 l/m 15,8 km/h (3 Bft) W 270 1,4 C 0,1 C
19.02.2012 10:17 3,8 C 84 % 1009,5 hPa 0,0 l/m 26,3 km/h (4 Bft) W-SW 247 1,4 C -1,2 C
19.02.2012 10:22 3,8 C 84 % 1009,6 hPa 0,0 l/m 14,0 km/h (3 Bft) W 270 1,4 C 0,4 C
19.02.2012 10:27 3,9 C 84 % 1009,7 hPa 0,0 l/m 7,6 km/h (2 Bft) W-SW 247 1,4 C 2,0 C
19.02.2012 10:32 3,9 C 83 % 1009,7 hPa 0,0 l/m 10,8 km/h (2 Bft) NW 315 1,3 C 1,2 C
19.02.2012 10:37 3,9 C 82 % 1009,8 hPa 0,0 l/m 20,9 km/h (4 Bft) W-NW 292 1,1 C -0,4 C
19.02.2012 10:42 3,9 C 82 % 1009,9 hPa 0,0 l/m 16,6 km/h (3 Bft) W 270 1,1 C 0,1 C
19.02.2012 10:47 4,1 C 81 % 1009,7 hPa 0,0 l/m 4,3 km/h (1 Bft) W-SW 247 1,1 C 4,1 C
19.02.2012 10:52 4,0 C 81 % 1009,9 hPa 0,0 l/m 16,6 km/h (3 Bft) W 270 1,0 C 0,3 C
19.02.2012 10:57 4,1 C 81 % 1009,9 hPa 0,0 l/m 14,4 km/h (3 Bft) W 270 1,1 C 0,7 C
19.02.2012 11:02 4,1 C 80 % 1010,1 hPa 0,0 l/m 6,1 km/h (2 Bft) W 270 1,0 C 2,7 C
19.02.2012 11:07 4,1 C 80 % 1010,1 hPa 0,0 l/m 13,0 km/h (3 Bft) W 270 1,0 C 1,0 C
19.02.2012 11:12 4,1 C 80 % 1010,3 hPa 0,0 l/m 24,5 km/h (4 Bft) NW 315 1,0 C -0,6 C
19.02.2012 11:17 4,1 C 79 % 1010,3 hPa 0,0 l/m 18,4 km/h (3 Bft) W 270 0,8 C 0,1 C
19.02.2012 11:22 4,1 C 79 % 1010,5 hPa 0,0 l/m 10,4 km/h (2 Bft) N-NW 337 0,8 C 1,5 C
19.02.2012 11:27 4,1 C 79 % 1010,7 hPa 0,0 l/m 12,6 km/h (3 Bft) W-SW 247 0,8 C 1,1 C
19.02.2012 11:32 4,3 C 79 % 1010,6 hPa 0,0 l/m 14,4 km/h (3 Bft) W 270 1,0 C 1,0 C
19.02.2012 11:37 4,3 C 79 % 1010,7 hPa 0,0 l/m 15,5 km/h (3 Bft) SW 225 1,0 C 0,8 C
19.02.2012 11:42 4,3 C 79 % 1010,9 hPa 0,0 l/m 13,0 km/h (3 Bft) W 270 1,0 C 1,2 C
19.02.2012 11:47 4,3 C 78 % 1010,7 hPa 0,0 l/m 11,2 km/h (2 Bft) W 270 0,8 C 1,6 C
19.02.2012 11:52 4,2 C 78 % 1010,8 hPa 0,0 l/m 8,3 km/h (2 Bft) W-NW 292 0,7 C 2,1 C
19.02.2012 11:57 4,2 C 78 % 1010,7 hPa 0,0 l/m 12,2 km/h (2 Bft) W-SW 247 0,7 C 1,2 C
19.02.2012 12:02 4,3 C 78 % 1010,9 hPa 0,0 l/m 10,8 km/h (2 Bft) W 270 0,8 C 1,6 C
19.02.2012 12:07 4,3 C 78 % 1011,0 hPa 0,0 l/m 9,7 km/h (2 Bft) W-SW 247 0,8 C 1,9 C
19.02.2012 12:12 4,3 C 78 % 1011,0 hPa 0,0 l/m 14,0 km/h (3 Bft) W-NW 292 0,8 C 1,0 C
19.02.2012 12:17 4,3 C 78 % 1011,1 hPa 0,0 l/m 7,9 km/h (2 Bft) W-SW 247 0,8 C 2,3 C
19.02.2012 12:22 4,3 C 78 % 1011,1 hPa 0,0 l/m 18,7 km/h (3 Bft) W 270 0,8 C 0,4 C
19.02.2012 12:27 4,3 C 78 % 1011,1 hPa 0,0 l/m 7,2 km/h (2 Bft) W 270 0,8 C 2,5 C
19.02.2012 12:32 4,3 C 78 % 1011,4 hPa 0,0 l/m 19,4 km/h (3 Bft) W-SW 247 0,8 C 0,3 C
19.02.2012 12:37 4,3 C 78 % 1011,4 hPa 0,0 l/m 10,8 km/h (2 Bft) W-SW 247 0,8 C 1,6 C
19.02.2012 12:42 4,3 C 79 % 1011,4 hPa 0,0 l/m 6,1 km/h (2 Bft) W-NW 292 1,0 C 2,9 C
19.02.2012 12:47 4,3 C 79 % 1011,4 hPa 0,0 l/m 18,4 km/h (3 Bft) SW 225 1,0 C 0,4 C
19.02.2012 12:52 4,3 C 79 % 1011,7 hPa 0,0 l/m 18,4 km/h (3 Bft) W-SW 247 1,0 C 0,4 C
19.02.2012 12:57 4,4 C 79 % 1011,5 hPa 0,0 l/m 15,5 km/h (3 Bft) W-SW 247 1,1 C 0,9 C
19.02.2012 13:02 4,4 C 79 % 1011,4 hPa 0,0 l/m 13,3 km/h (3 Bft) W-NW 292 1,1 C 1,3 C
19.02.2012 13:07 4,4 C 78 % 1011,5 hPa 0,0 l/m 18,7 km/h (3 Bft) W-NW 292 0,9 C 0,5 C
19.02.2012 13:12 4,5 C 78 % 1011,4 hPa 0,0 l/m 18,0 km/h (3 Bft) W 270 1,0 C 0,7 C
19.02.2012 13:17 4,6 C 78 % 1011,8 hPa 0,0 l/m 15,5 km/h (3 Bft) W-SW 247 1,1 C 1,2 C
19.02.2012 13:22 4,6 C 77 % 1011,8 hPa 0,0 l/m 22,0 km/h (4 Bft) W 270 0,9 C 0,3 C
19.02.2012 13:27 4,6 C 77 % 1011,9 hPa 0,0 l/m 6,1 km/h (2 Bft) SW 225 0,9 C 3,2 C
19.02.2012 13:32 4,6 C 77 % 1012,0 hPa 0,0 l/m 10,1 km/h (2 Bft) W-SW 247 0,9 C 2,2 C
19.02.2012 13:37 4,7 C 77 % 1012,0 hPa 0,0 l/m 8,3 km/h (2 Bft) W-SW 247 1,0 C 2,7 C
19.02.2012 13:42 4,8 C 77 % 1012,0 hPa 0,0 l/m 20,2 km/h (4 Bft) W-NW 292 1,1 C 0,8 C
19.02.2012 13:47 4,7 C 76 % 1012,1 hPa 0,0 l/m 15,1 km/h (3 Bft) SW 225 0,8 C 1,4 C
19.02.2012 13:52 4,7 C 76 % 1012,1 hPa 0,0 l/m 12,2 km/h (2 Bft) W 270 0,8 C 1,9 C
19.02.2012 13:57 4,8 C 77 % 1012,3 hPa 0,0 l/m 11,5 km/h (2 Bft) W 270 1,1 C 2,1 C
19.02.2012 14:02 4,8 C 77 % 1012,2 hPa 0,0 l/m 9,7 km/h (2 Bft) SW 225 1,1 C 2,5 C
19.02.2012 14:07 4,8 C 76 % 1012,3 hPa 0,0 l/m 12,6 km/h (3 Bft) W 270 0,9 C 1,9 C
19.02.2012 14:12 4,8 C 76 % 1012,4 hPa 0,0 l/m 19,8 km/h (3 Bft) W-NW 292 0,9 C 0,8 C
19.02.2012 14:17 4,8 C 77 % 1012,5 hPa 0,0 l/m 9,4 km/h (2 Bft) W-SW 247 1,1 C 2,6 C
19.02.2012 14:22 4,9 C 76 % 1012,6 hPa 0,0 l/m 9,4 km/h (2 Bft) W-NW 292 1,0 C 2,7 C
19.02.2012 14:27 4,9 C 76 % 1012,6 hPa 0,0 l/m 15,8 km/h (3 Bft) W-SW 247 1,0 C 1,5 C
19.02.2012 14:32 4,9 C 76 % 1012,7 hPa 0,0 l/m 11,9 km/h (2 Bft) W 270 1,0 C 2,2 C
19.02.2012 14:37 4,9 C 75 % 1012,8 hPa 0,0 l/m 18,0 km/h (3 Bft) W 270 0,8 C 1,2 C
19.02.2012 14:42 4,9 C 75 % 1012,8 hPa 0,0 l/m 8,6 km/h (2 Bft) W 270 0,8 C 2,9 C
19.02.2012 14:47 5,0 C 75 % 1013,0 hPa 0,0 l/m 10,8 km/h (2 Bft) W-NW 292 0,9 C 2,5 C
19.02.2012 14:52 5,0 C 75 % 1013,0 hPa 0,0 l/m 9,7 km/h (2 Bft) W-SW 247 0,9 C 2,7 C
19.02.2012 14:57 5,0 C 75 % 1013,1 hPa 0,0 l/m 20,9 km/h (4 Bft) W 270 0,9 C 1,0 C
19.02.2012 15:02 5,0 C 75 % 1013,1 hPa 0,0 l/m 24,1 km/h (4 Bft) W-SW 247 0,9 C 0,6 C
19.02.2012 15:07 5,0 C 74 % 1013,1 hPa 0,0 l/m 20,2 km/h (4 Bft) W 270 0,8 C 1,0 C
19.02.2012 15:12 5,0 C 74 % 1013,2 hPa 0,0 l/m 13,7 km/h (3 Bft) W-SW 247 0,8 C 2,0 C
19.02.2012 15:17 5,1 C 74 % 1013,2 hPa 0,0 l/m 12,6 km/h (3 Bft) W 270 0,9 C 2,3 C
19.02.2012 15:22 5,2 C 73 % 1013,4 hPa 0,0 l/m 13,0 km/h (3 Bft) W 270 0,8 C 2,3 C
19.02.2012 15:27 5,2 C 73 % 1013,4 hPa 0,0 l/m 25,6 km/h (4 Bft) W-SW 247 0,8 C 0,7 C
19.02.2012 15:32 5,1 C 73 % 1013,5 hPa 0,0 l/m 20,2 km/h (4 Bft) W 270 0,7 C 1,2 C
19.02.2012 15:37 5,1 C 73 % 1013,6 hPa 0,0 l/m 14,4 km/h (3 Bft) W-SW 247 0,7 C 2,0 C
19.02.2012 15:42 5,1 C 73 % 1013,5 hPa 0,0 l/m 19,4 km/h (3 Bft) W-SW 247 0,7 C 1,3 C
19.02.2012 15:47 5,1 C 73 % 1013,9 hPa 0,0 l/m 23,4 km/h (4 Bft) W-NW 292 0,7 C 0,8 C
19.02.2012 15:52 4,9 C 75 % 1014,5 hPa 0,0 l/m 17,3 km/h (3 Bft) W 270 0,8 C 1,3 C
19.02.2012 15:57 4,3 C 77 % 1014,5 hPa 0,5 l/m 19,8 km/h (3 Bft) W-NW 292 0,6 C 0,2 C
19.02.2012 16:02 3,8 C 79 % 1014,6 hPa 0,0 l/m 13,3 km/h (3 Bft) W 270 0,5 C 0,6 C
19.02.2012 16:07 3,5 C 80 % 1014,6 hPa 0,0 l/m 14,0 km/h (3 Bft) W-NW 292 0,4 C 0,1 C
19.02.2012 16:12 3,3 C 81 % 1014,8 hPa 0,0 l/m 8,3 km/h (2 Bft) W-SW 247 0,4 C 1,1 C
19.02.2012 16:17 3,2 C 82 % 1014,7 hPa 0,0 l/m 5,0 km/h (1 Bft) W-NW 292 0,4 C 2,0 C
19.02.2012 16:22 3,1 C 82 % 1014,9 hPa 0,0 l/m 5,0 km/h (1 Bft) W 270 0,3 C 1,9 C
19.02.2012 16:27 3,1 C 83 % 1014,9 hPa 0,0 l/m 11,2 km/h (2 Bft) W-SW 247 0,5 C 0,1 C
19.02.2012 16:32 3,1 C 83 % 1014,8 hPa 0,0 l/m 10,1 km/h (2 Bft) W-SW 247 0,5 C 0,4 C
19.02.2012 16:37 3,1 C 84 % 1014,9 hPa 0,0 l/m 11,5 km/h (2 Bft) W-SW 247 0,7 C 0,1 C
19.02.2012 16:42 3,3 C 84 % 1014,9 hPa 0,0 l/m 6,1 km/h (2 Bft) W 270 0,9 C 1,7 C
19.02.2012 16:47 3,3 C 84 % 1014,9 hPa 0,0 l/m 14,8 km/h (3 Bft) S-SO 157 0,9 C -0,3 C
19.02.2012 16:52 3,4 C 84 % 1014,9 hPa 0,0 l/m 10,1 km/h (2 Bft) W 270 1,0 C 0,7 C
19.02.2012 16:57 3,4 C 84 % 1015,0 hPa 0,0 l/m 10,4 km/h (2 Bft) NW 315 1,0 C 0,7 C
19.02.2012 17:02 3,3 C 83 % 1015,2 hPa 0,0 l/m 6,5 km/h (2 Bft) W-NW 292 0,7 C 1,6 C
19.02.2012 17:07 3,3 C 83 % 1015,3 hPa 0,0 l/m 9,7 km/h (2 Bft) W 270 0,7 C 0,7 C
19.02.2012 17:12 3,3 C 83 % 1015,6 hPa 0,0 l/m 8,6 km/h (2 Bft) W-NW 292 0,7 C 1,0 C
19.02.2012 17:17 3,2 C 83 % 1015,5 hPa 0,0 l/m 10,1 km/h (2 Bft) W 270 0,6 C 0,5 C
19.02.2012 17:22 3,1 C 84 % 1015,7 hPa 0,0 l/m 7,6 km/h (2 Bft) W-SW 247 0,7 C 1,0 C
19.02.2012 17:27 3,1 C 84 % 1015,8 hPa 0,0 l/m 13,7 km/h (3 Bft) W 270 0,7 C -0,4 C
19.02.2012 17:32 3,0 C 84 % 1016,0 hPa 0,0 l/m 24,1 km/h (4 Bft) W-NW 292 0,6 C -2,0 C
19.02.2012 17:37 2,9 C 84 % 1016,2 hPa 0,0 l/m 10,1 km/h (2 Bft) W 270 0,5 C 0,1 C
19.02.2012 17:42 2,8 C 84 % 1016,4 hPa 0,0 l/m 3,2 km/h (1 Bft) NW 315 0,4 C 2,8 C
19.02.2012 17:47 2,7 C 84 % 1016,4 hPa 0,0 l/m 18,7 km/h (3 Bft) W-NW 292 0,3 C -1,7 C
19.02.2012 17:52 2,7 C 84 % 1016,5 hPa 0,0 l/m 13,7 km/h (3 Bft) N-NW 337 0,3 C -0,9 C
19.02.2012 17:57 2,6 C 85 % 1016,6 hPa 0,0 l/m 15,8 km/h (3 Bft) W-NW 292 0,3 C -1,3 C
19.02.2012 18:02 2,6 C 85 % 1016,5 hPa 0,0 l/m 19,8 km/h (3 Bft) W-NW 292 0,3 C -1,9 C
19.02.2012 18:07 2,5 C 85 % 1016,7 hPa 0,0 l/m 13,3 km/h (3 Bft) W-SW 247 0,2 C -1,0 C
19.02.2012 18:12 2,5 C 84 % 1017,0 hPa 0,0 l/m 9,7 km/h (2 Bft) W 270 0,1 C -0,3 C
19.02.2012 18:17 2,4 C 84 % 1017,2 hPa 0,0 l/m 18,4 km/h (3 Bft) W 270 -0,0 C -2,0 C
19.02.2012 18:22 2,4 C 84 % 1017,5 hPa 0,0 l/m 15,5 km/h (3 Bft) W-NW 292 -0,0 C -1,5 C
19.02.2012 18:27 2,3 C 85 % 1017,4 hPa 0,0 l/m 3,2 km/h (1 Bft) W 270 0,0 C 2,3 C
19.02.2012 18:32 2,2 C 85 % 1017,5 hPa 0,0 l/m 6,1 km/h (2 Bft) W 270 -0,1 C 0,5 C
19.02.2012 18:37 2,1 C 85 % 1017,8 hPa 0,0 l/m 13,7 km/h (3 Bft) W 270 -0,2 C -1,6 C
19.02.2012 18:42 2,1 C 86 % 1017,9 hPa 0,0 l/m 10,8 km/h (2 Bft) W 270 0,0 C -1,0 C
19.02.2012 18:47 2,0 C 86 % 1018,1 hPa 0,0 l/m 13,3 km/h (3 Bft) W-SW 247 -0,1 C -1,6 C
19.02.2012 18:52 1,9 C 86 % 1018,1 hPa 0,0 l/m 10,1 km/h (2 Bft) SW 225 -0,2 C -1,1 C
19.02.2012 18:57 1,9 C 86 % 1018,3 hPa 0,0 l/m 14,8 km/h (3 Bft) W-SW 247 -0,2 C -2,0 C
19.02.2012 19:02 1,9 C 86 % 1018,5 hPa 0,0 l/m 6,8 km/h (2 Bft) W-SW 247 -0,2 C -0,1 C
19.02.2012 19:07 1,8 C 86 % 1018,6 hPa 0,0 l/m 11,2 km/h (2 Bft) W-SW 247 -0,3 C -1,4 C
19.02.2012 19:12 1,8 C 86 % 1018,6 hPa 0,0 l/m 11,2 km/h (2 Bft) W-SW 247 -0,3 C -1,4 C
19.02.2012 19:17 1,8 C 86 % 1018,9 hPa 0,0 l/m 7,9 km/h (2 Bft) W 270 -0,3 C -0,6 C
19.02.2012 19:22 1,7 C 86 % 1018,9 hPa 0,0 l/m 9,4 km/h (2 Bft) W 270 -0,4 C -1,1 C
19.02.2012 19:27 1,6 C 86 % 1019,1 hPa 0,0 l/m 13,7 km/h (3 Bft) W-SW 247 -0,5 C -2,2 C
19.02.2012 19:32 1,6 C 86 % 1018,9 hPa 0,0 l/m 5,0 km/h (1 Bft) W-SW 247 -0,5 C 0,2 C
19.02.2012 19:37 1,6 C 86 % 1019,2 hPa 0,0 l/m 8,6 km/h (2 Bft) W-SW 247 -0,5 C -1,0 C
19.02.2012 19:42 1,6 C 86 % 1019,3 hPa 0,0 l/m 7,6 km/h (2 Bft) NW 315 -0,5 C -0,7 C
19.02.2012 19:47 1,6 C 86 % 1019,4 hPa 0,0 l/m 5,0 km/h (1 Bft) W 270 -0,5 C 0,2 C
19.02.2012 19:52 1,6 C 86 % 1019,4 hPa 0,0 l/m 11,2 km/h (2 Bft) W-NW 292 -0,5 C -1,7 C
19.02.2012 19:57 1,6 C 86 % 1019,7 hPa 0,0 l/m 10,8 km/h (2 Bft) W 270 -0,5 C -1,6 C
19.02.2012 20:02 1,6 C 86 % 1019,7 hPa 0,0 l/m 7,6 km/h (2 Bft) W 270 -0,5 C -0,7 C
19.02.2012 20:07 1,6 C 86 % 1019,8 hPa 0,0 l/m 6,1 km/h (2 Bft) W 270 -0,5 C -0,2 C
19.02.2012 20:12 1,7 C 85 % 1019,9 hPa 0,0 l/m 10,8 km/h (2 Bft) W 270 -0,5 C -1,5 C
19.02.2012 20:17 1,6 C 85 % 1020,0 hPa 0,0 l/m 13,7 km/h (3 Bft) W 270 -0,6 C -2,2 C
19.02.2012 20:22 1,6 C 85 % 1020,1 hPa 0,0 l/m 3,2 km/h (1 Bft) W-SW 247 -0,6 C 1,6 C
19.02.2012 20:27 1,6 C 85 % 1020,2 hPa 0,0 l/m 6,8 km/h (2 Bft) W 270 -0,6 C -0,5 C
19.02.2012 20:32 1,6 C 85 % 1020,4 hPa 0,0 l/m 8,3 km/h (2 Bft) W-SW 247 -0,6 C -0,9 C
19.02.2012 20:37 1,5 C 85 % 1020,4 hPa 0,0 l/m 5,8 km/h (2 Bft) W 270 -0,7 C -0,2 C
19.02.2012 20:42 1,5 C 85 % 1020,6 hPa 0,0 l/m 14,4 km/h (3 Bft) W-SW 247 -0,7 C -2,5 C
19.02.2012 20:47 1,5 C 85 % 1020,6 hPa 0,0 l/m 6,8 km/h (2 Bft) W-SW 247 -0,7 C -0,6 C
19.02.2012 20:52 1,5 C 85 % 1020,9 hPa 0,0 l/m 7,6 km/h (2 Bft) W 270 -0,7 C -0,9 C
19.02.2012 20:57 1,5 C 85 % 1020,8 hPa 0,0 l/m 8,6 km/h (2 Bft) W-SW 247 -0,7 C -1,2 C
19.02.2012 21:02 1,4 C 85 % 1020,9 hPa 0,0 l/m 8,3 km/h (2 Bft) W 270 -0,8 C -1,2 C
19.02.2012 21:07 1,4 C 85 % 1021,1 hPa 0,0 l/m 13,7 km/h (3 Bft) W-SW 247 -0,8 C -2,4 C
19.02.2012 21:12 1,4 C 85 % 1021,2 hPa 0,0 l/m 6,1 km/h (2 Bft) W 270 -0,8 C -0,5 C
19.02.2012 21:17 1,4 C 85 % 1021,3 hPa 0,0 l/m 6,1 km/h (2 Bft) W-SW 247 -0,8 C -0,5 C
19.02.2012 21:22 1,3 C 85 % 1021,4 hPa 0,0 l/m 7,6 km/h (2 Bft) S-SW 202 -0,9 C -1,1 C
19.02.2012 21:27 1,3 C 85 % 1021,5 hPa 0,0 l/m 8,3 km/h (2 Bft) SW 225 -0,9 C -1,3 C
19.02.2012 21:32 1,3 C 85 % 1021,6 hPa 0,0 l/m 4,0 km/h (1 Bft) W-SW 247 -0,9 C 1,3 C
19.02.2012 21:37 1,3 C 85 % 1021,7 hPa 0,0 l/m 8,6 km/h (2 Bft) W-SW 247 -0,9 C -1,4 C
19.02.2012 21:42 1,3 C 85 % 1021,8 hPa 0,0 l/m 10,4 km/h (2 Bft) W-NW 292 -0,9 C -1,9 C
19.02.2012 21:47 1,3 C 85 % 1021,9 hPa 0,0 l/m 12,2 km/h (2 Bft) W 270 -0,9 C -2,3 C
19.02.2012 21:52 1,3 C 85 % 1022,1 hPa 0,0 l/m 10,8 km/h (2 Bft) W 270 -0,9 C -2,0 C
19.02.2012 21:57 1,3 C 85 % 1022,2 hPa 0,0 l/m 12,6 km/h (3 Bft) W-NW 292 -0,9 C -2,4 C
19.02.2012 22:02 1,3 C 85 % 1022,3 hPa 0,0 l/m 14,4 km/h (3 Bft) W 270 -0,9 C -2,7 C
19.02.2012 22:07 1,3 C 85 % 1022,4 hPa 0,0 l/m 10,8 km/h (2 Bft) W-SW 247 -0,9 C -2,0 C
19.02.2012 22:12 1,3 C 85 % 1022,5 hPa 0,0 l/m 20,5 km/h (4 Bft) W 270 -0,9 C -3,7 C
19.02.2012 22:17 1,3 C 85 % 1022,5 hPa 0,0 l/m 14,4 km/h (3 Bft) W 270 -0,9 C -2,7 C
19.02.2012 22:22 1,3 C 85 % 1022,6 hPa 0,0 l/m 9,7 km/h (2 Bft) W-NW 292 -0,9 C -1,7 C
19.02.2012 22:27 1,3 C 85 % 1022,6 hPa 0,0 l/m 5,0 km/h (1 Bft) W 270 -0,9 C -0,1 C
19.02.2012 22:32 1,2 C 85 % 1022,7 hPa 0,0 l/m 8,6 km/h (2 Bft) W-NW 292 -1,0 C -1,5 C
19.02.2012 22:37 1,2 C 85 % 1022,6 hPa 0,0 l/m 7,2 km/h (2 Bft) W 270 -1,0 C -1,1 C
19.02.2012 22:42 1,2 C 86 % 1022,9 hPa 0,0 l/m 5,8 km/h (2 Bft) W 270 -0,9 C -0,6 C
19.02.2012 22:47 1,2 C 86 % 1022,8 hPa 0,0 l/m 4,0 km/h (1 Bft) S 180 -0,9 C 1,2 C
19.02.2012 22:52 1,1 C 86 % 1023,1 hPa 0,0 l/m 18,4 km/h (3 Bft) W-NW 292 -1,0 C -3,6 C
19.02.2012 22:57 1,1 C 86 % 1023,2 hPa 0,0 l/m 8,3 km/h (2 Bft) W-NW 292 -1,0 C -1,5 C
19.02.2012 23:02 1,1 C 86 % 1023,2 hPa 0,0 l/m 3,2 km/h (1 Bft) W 270 -1,0 C 1,1 C
19.02.2012 23:07 1,1 C 86 % 1023,3 hPa 0,0 l/m 13,0 km/h (3 Bft) W 270 -1,0 C -2,7 C
19.02.2012 23:12 1,0 C 86 % 1023,5 hPa 0,0 l/m 11,5 km/h (2 Bft) W-NW 292 -1,1 C -2,5 C
19.02.2012 23:17 1,0 C 86 % 1023,4 hPa 0,0 l/m 16,9 km/h (3 Bft) SW 225 -1,1 C -3,5 C
19.02.2012 23:22 0,9 C 86 % 1023,5 hPa 0,0 l/m 14,8 km/h (3 Bft) W-SW 247 -1,2 C -3,3 C
19.02.2012 23:27 0,9 C 86 % 1023,8 hPa 0,0 l/m 14,0 km/h (3 Bft) W 270 -1,2 C -3,1 C
19.02.2012 23:32 0,9 C 86 % 1023,8 hPa 0,0 l/m 15,5 km/h (3 Bft) W 270 -1,2 C -3,4 C
19.02.2012 23:37 0,9 C 86 % 1024,0 hPa 0,0 l/m 16,9 km/h (3 Bft) W-NW 292 -1,2 C -3,6 C
19.02.2012 23:42 0,9 C 86 % 1024,1 hPa 0,0 l/m 10,1 km/h (2 Bft) W-SW 247 -1,2 C -2,3 C
19.02.2012 23:47 0,9 C 86 % 1024,1 hPa 0,0 l/m 7,9 km/h (2 Bft) W-NW 292 -1,2 C -1,7 C
19.02.2012 23:52 0,9 C 86 % 1024,2 hPa 0,0 l/m 16,2 km/h (3 Bft) W 270 -1,2 C -3,5 C
19.02.2012 23:57 0,8 C 86 % 1024,3 hPa 0,0 l/m 6,1 km/h (2 Bft) W-NW 292 -1,3 C -1,1 C
_ Min-Zeit 23:57 15:22 03:52 - 04:57 - - 23:57 22:12
Minimum _ 0,8 C 73 % 1004,0 hPa - 1,8 km/h (1 Bft) - - -1,3 C -3,7 C
_ Max-Zeit 03:02 00:02 23:57 03:47 10:17 - - 00:07 04:12
Maximum _ 6,1 C 89 % 1024,3 hPa 0,5 l/m 26,3 km/h
W-SW (4 Bft)
- - 4,1 C 4,8 C
Durchschnitt _ 3,6 C 84 % 1012,0 hPa #2,1 l/m 12,5 km/h (3 Bft) W - 1,1 C 0,7 C
(c) by David Heller